sensor_id;sensor_type;location;lat;lon;timestamp;P1;durP1;ratioP1;P2;durP2;ratioP2
13651;SDS011;6899;51.546;6.912;2023-03-12T00:02:28;20.63;;;11.83;;
13651;SDS011;6899;51.546;6.912;2023-03-12T00:04:55;18.17;;;12.00;;
13651;SDS011;6899;51.546;6.912;2023-03-12T00:07:22;16.17;;;11.73;;
13651;SDS011;6899;51.546;6.912;2023-03-12T00:09:48;18.77;;;12.23;;
13651;SDS011;6899;51.546;6.912;2023-03-12T00:12:17;14.17;;;9.97;;
13651;SDS011;6899;51.546;6.912;2023-03-12T00:14:43;20.13;;;11.93;;
13651;SDS011;6899;51.546;6.912;2023-03-12T00:17:10;20.13;;;11.57;;
13651;SDS011;6899;51.546;6.912;2023-03-12T00:19:37;17.90;;;12.17;;
13651;SDS011;6899;51.546;6.912;2023-03-12T00:22:04;16.00;;;11.70;;
13651;SDS011;6899;51.546;6.912;2023-03-12T00:24:31;23.17;;;12.93;;
13651;SDS011;6899;51.546;6.912;2023-03-12T00:26:58;18.27;;;12.73;;
13651;SDS011;6899;51.546;6.912;2023-03-12T00:29:26;19.00;;;12.67;;
13651;SDS011;6899;51.546;6.912;2023-03-12T00:31:53;20.13;;;12.07;;
13651;SDS011;6899;51.546;6.912;2023-03-12T00:34:19;20.97;;;11.73;;
13651;SDS011;6899;51.546;6.912;2023-03-12T00:36:49;19.50;;;12.53;;
13651;SDS011;6899;51.546;6.912;2023-03-12T00:39:25;20.57;;;12.57;;
13651;SDS011;6899;51.546;6.912;2023-03-12T00:41:52;18.60;;;12.73;;
13651;SDS011;6899;51.546;6.912;2023-03-12T00:44:19;20.20;;;13.30;;
13651;SDS011;6899;51.546;6.912;2023-03-12T00:46:47;24.63;;;15.73;;
13651;SDS011;6899;51.546;6.912;2023-03-12T00:49:16;18.63;;;13.27;;
13651;SDS011;6899;51.546;6.912;2023-03-12T00:51:43;18.27;;;12.80;;
13651;SDS011;6899;51.546;6.912;2023-03-12T00:54:10;15.93;;;11.97;;
13651;SDS011;6899;51.546;6.912;2023-03-12T00:56:37;17.23;;;12.20;;
13651;SDS011;6899;51.546;6.912;2023-03-12T00:59:04;18.83;;;12.43;;
13651;SDS011;6899;51.546;6.912;2023-03-12T01:01:31;18.33;;;12.43;;
13651;SDS011;6899;51.546;6.912;2023-03-12T01:03:59;15.70;;;10.77;;
13651;SDS011;6899;51.546;6.912;2023-03-12T01:06:26;17.47;;;10.90;;
13651;SDS011;6899;51.546;6.912;2023-03-12T01:08:53;17.37;;;10.07;;
13651;SDS011;6899;51.546;6.912;2023-03-12T01:11:20;12.97;;;9.57;;
13651;SDS011;6899;51.546;6.912;2023-03-12T01:13:47;12.90;;;9.40;;
13651;SDS011;6899;51.546;6.912;2023-03-12T01:16:14;15.03;;;9.70;;
13651;SDS011;6899;51.546;6.912;2023-03-12T01:18:41;11.87;;;9.20;;
13651;SDS011;6899;51.546;6.912;2023-03-12T01:21:09;14.70;;;9.43;;
13651;SDS011;6899;51.546;6.912;2023-03-12T01:23:36;14.97;;;10.33;;
13651;SDS011;6899;51.546;6.912;2023-03-12T01:26:03;14.17;;;10.37;;
13651;SDS011;6899;51.546;6.912;2023-03-12T01:28:30;14.70;;;9.53;;
13651;SDS011;6899;51.546;6.912;2023-03-12T01:30:57;15.93;;;10.30;;
13651;SDS011;6899;51.546;6.912;2023-03-12T01:33:24;15.50;;;10.07;;
13651;SDS011;6899;51.546;6.912;2023-03-12T01:35:50;15.57;;;10.00;;
13651;SDS011;6899;51.546;6.912;2023-03-12T01:38:19;13.53;;;9.77;;
13651;SDS011;6899;51.546;6.912;2023-03-12T01:40:45;12.17;;;9.07;;
13651;SDS011;6899;51.546;6.912;2023-03-12T01:43:22;17.10;;;9.10;;
13651;SDS011;6899;51.546;6.912;2023-03-12T01:46:03;12.60;;;8.90;;
13651;SDS011;6899;51.546;6.912;2023-03-12T01:48:33;11.93;;;8.70;;
13651;SDS011;6899;51.546;6.912;2023-03-12T01:51:04;12.40;;;8.10;;
13651;SDS011;6899;51.546;6.912;2023-03-12T01:53:34;13.67;;;8.20;;
13651;SDS011;6899;51.546;6.912;2023-03-12T01:56:02;12.57;;;8.57;;
13651;SDS011;6899;51.546;6.912;2023-03-12T01:58:32;14.00;;;8.20;;
13651;SDS011;6899;51.546;6.912;2023-03-12T02:01:02;12.37;;;8.57;;
13651;SDS011;6899;51.546;6.912;2023-03-12T02:03:29;9.70;;;7.27;;
13651;SDS011;6899;51.546;6.912;2023-03-12T02:05:59;10.40;;;7.27;;
13651;SDS011;6899;51.546;6.912;2023-03-12T02:08:31;10.23;;;6.70;;
13651;SDS011;6899;51.546;6.912;2023-03-12T02:11:04;13.10;;;6.67;;
13651;SDS011;6899;51.546;6.912;2023-03-12T02:13:32;7.27;;;6.03;;
13651;SDS011;6899;51.546;6.912;2023-03-12T02:15:59;10.10;;;6.20;;
13651;SDS011;6899;51.546;6.912;2023-03-12T02:18:26;10.93;;;5.90;;
13651;SDS011;6899;51.546;6.912;2023-03-12T02:20:55;9.93;;;5.53;;
13651;SDS011;6899;51.546;6.912;2023-03-12T02:23:32;8.30;;;4.97;;
13651;SDS011;6899;51.546;6.912;2023-03-12T02:26:04;8.33;;;5.10;;
13651;SDS011;6899;51.546;6.912;2023-03-12T02:28:33;10.97;;;5.03;;
13651;SDS011;6899;51.546;6.912;2023-03-12T02:31:06;8.47;;;4.60;;
13651;SDS011;6899;51.546;6.912;2023-03-12T02:33:33;6.23;;;4.77;;
13651;SDS011;6899;51.546;6.912;2023-03-12T02:36:00;6.03;;;3.97;;
13651;SDS011;6899;51.546;6.912;2023-03-12T02:38:32;10.30;;;4.80;;
13651;SDS011;6899;51.546;6.912;2023-03-12T02:41:03;8.57;;;4.30;;
13651;SDS011;6899;51.546;6.912;2023-03-12T02:43:35;5.77;;;4.10;;
13651;SDS011;6899;51.546;6.912;2023-03-12T02:46:03;5.33;;;3.93;;
13651;SDS011;6899;51.546;6.912;2023-03-12T02:48:30;6.07;;;4.00;;
13651;SDS011;6899;51.546;6.912;2023-03-12T02:50:57;6.73;;;4.20;;
13651;SDS011;6899;51.546;6.912;2023-03-12T02:53:24;8.93;;;4.53;;
13651;SDS011;6899;51.546;6.912;2023-03-12T02:55:51;8.37;;;4.30;;
13651;SDS011;6899;51.546;6.912;2023-03-12T02:58:22;8.83;;;4.10;;
13651;SDS011;6899;51.546;6.912;2023-03-12T03:00:48;6.37;;;4.10;;
13651;SDS011;6899;51.546;6.912;2023-03-12T03:03:15;6.53;;;3.70;;
13651;SDS011;6899;51.546;6.912;2023-03-12T03:05:42;7.97;;;3.93;;
13651;SDS011;6899;51.546;6.912;2023-03-12T03:08:09;4.53;;;3.73;;
13651;SDS011;6899;51.546;6.912;2023-03-12T03:10:36;6.00;;;4.20;;
13651;SDS011;6899;51.546;6.912;2023-03-12T03:13:03;5.87;;;4.00;;
13651;SDS011;6899;51.546;6.912;2023-03-12T03:15:34;5.73;;;3.40;;
13651;SDS011;6899;51.546;6.912;2023-03-12T03:18:02;5.97;;;3.90;;
13651;SDS011;6899;51.546;6.912;2023-03-12T03:20:29;4.57;;;3.37;;
13651;SDS011;6899;51.546;6.912;2023-03-12T03:22:56;4.63;;;3.40;;
13651;SDS011;6899;51.546;6.912;2023-03-12T03:25:23;5.83;;;3.30;;
13651;SDS011;6899;51.546;6.912;2023-03-12T03:27:50;6.17;;;3.63;;
13651;SDS011;6899;51.546;6.912;2023-03-12T03:30:17;5.37;;;3.80;;
13651;SDS011;6899;51.546;6.912;2023-03-12T03:32:47;7.90;;;4.53;;
13651;SDS011;6899;51.546;6.912;2023-03-12T03:35:14;8.30;;;4.20;;
13651;SDS011;6899;51.546;6.912;2023-03-12T03:37:41;5.13;;;3.63;;
13651;SDS011;6899;51.546;6.912;2023-03-12T03:40:09;6.27;;;3.60;;
13651;SDS011;6899;51.546;6.912;2023-03-12T03:42:39;4.23;;;3.30;;
13651;SDS011;6899;51.546;6.912;2023-03-12T03:45:07;8.03;;;4.30;;
13651;SDS011;6899;51.546;6.912;2023-03-12T03:47:34;6.90;;;4.03;;
13651;SDS011;6899;51.546;6.912;2023-03-12T03:50:03;8.43;;;3.70;;
13651;SDS011;6899;51.546;6.912;2023-03-12T03:52:31;5.77;;;3.90;;
13651;SDS011;6899;51.546;6.912;2023-03-12T03:55:01;8.43;;;3.63;;
13651;SDS011;6899;51.546;6.912;2023-03-12T03:57:28;4.80;;;3.33;;
13651;SDS011;6899;51.546;6.912;2023-03-12T03:59:54;5.97;;;3.53;;
13651;SDS011;6899;51.546;6.912;2023-03-12T04:02:22;7.00;;;3.33;;
13651;SDS011;6899;51.546;6.912;2023-03-12T04:04:50;9.00;;;3.40;;
13651;SDS011;6899;51.546;6.912;2023-03-12T04:07:18;7.50;;;3.10;;
13651;SDS011;6899;51.546;6.912;2023-03-12T04:09:46;4.50;;;3.03;;
13651;SDS011;6899;51.546;6.912;2023-03-12T04:12:13;5.83;;;3.10;;
13651;SDS011;6899;51.546;6.912;2023-03-12T04:14:43;6.83;;;3.03;;
13651;SDS011;6899;51.546;6.912;2023-03-12T04:17:09;4.67;;;2.77;;
13651;SDS011;6899;51.546;6.912;2023-03-12T04:19:36;5.00;;;2.90;;
13651;SDS011;6899;51.546;6.912;2023-03-12T04:22:03;3.73;;;2.70;;
13651;SDS011;6899;51.546;6.912;2023-03-12T04:24:32;6.10;;;2.80;;
13651;SDS011;6899;51.546;6.912;2023-03-12T04:26:58;4.60;;;2.90;;
13651;SDS011;6899;51.546;6.912;2023-03-12T04:29:25;4.60;;;2.50;;
13651;SDS011;6899;51.546;6.912;2023-03-12T04:31:52;6.80;;;2.40;;
13651;SDS011;6899;51.546;6.912;2023-03-12T04:34:19;4.00;;;2.57;;
13651;SDS011;6899;51.546;6.912;2023-03-12T04:36:46;8.90;;;2.70;;
13651;SDS011;6899;51.546;6.912;2023-03-12T04:39:15;6.73;;;3.60;;
13651;SDS011;6899;51.546;6.912;2023-03-12T04:41:44;5.27;;;2.30;;
13651;SDS011;6899;51.546;6.912;2023-03-12T04:44:12;4.87;;;2.40;;
13651;SDS011;6899;51.546;6.912;2023-03-12T04:46:38;5.43;;;2.27;;
13651;SDS011;6899;51.546;6.912;2023-03-12T04:49:05;4.07;;;2.47;;
13651;SDS011;6899;51.546;6.912;2023-03-12T04:51:32;6.33;;;2.57;;
13651;SDS011;6899;51.546;6.912;2023-03-12T04:53:59;3.97;;;2.33;;
13651;SDS011;6899;51.546;6.912;2023-03-12T04:56:26;5.57;;;2.30;;
13651;SDS011;6899;51.546;6.912;2023-03-12T04:58:54;4.53;;;2.20;;
13651;SDS011;6899;51.546;6.912;2023-03-12T05:01:23;6.63;;;2.43;;
13651;SDS011;6899;51.546;6.912;2023-03-12T05:03:51;4.53;;;2.40;;
13651;SDS011;6899;51.546;6.912;2023-03-12T05:06:22;5.73;;;2.60;;
13651;SDS011;6899;51.546;6.912;2023-03-12T05:08:49;4.27;;;2.20;;
13651;SDS011;6899;51.546;6.912;2023-03-12T05:11:17;11.35;;;3.00;;
13651;SDS011;6899;51.546;6.912;2023-03-12T05:13:44;4.87;;;2.30;;
13651;SDS011;6899;51.546;6.912;2023-03-12T05:16:16;6.23;;;2.37;;
13651;SDS011;6899;51.546;6.912;2023-03-12T05:18:43;4.47;;;2.87;;
13651;SDS011;6899;51.546;6.912;2023-03-12T05:21:13;4.43;;;2.17;;
13651;SDS011;6899;51.546;6.912;2023-03-12T05:23:41;7.90;;;3.30;;
13651;SDS011;6899;51.546;6.912;2023-03-12T05:26:14;4.97;;;2.30;;
13651;SDS011;6899;51.546;6.912;2023-03-12T05:28:42;5.35;;;2.20;;
13651;SDS011;6899;51.546;6.912;2023-03-12T05:31:09;4.53;;;2.90;;
13651;SDS011;6899;51.546;6.912;2023-03-12T05:33:38;7.00;;;2.50;;
13651;SDS011;6899;51.546;6.912;2023-03-12T05:36:06;3.77;;;2.70;;
13651;SDS011;6899;51.546;6.912;2023-03-12T05:38:33;3.53;;;1.90;;
13651;SDS011;6899;51.546;6.912;2023-03-12T05:41:01;5.03;;;2.33;;
13651;SDS011;6899;51.546;6.912;2023-03-12T05:43:28;3.97;;;2.33;;
13651;SDS011;6899;51.546;6.912;2023-03-12T05:45:57;3.00;;;2.20;;
13651;SDS011;6899;51.546;6.912;2023-03-12T05:48:25;3.43;;;2.60;;
13651;SDS011;6899;51.546;6.912;2023-03-12T05:50:53;5.40;;;2.40;;
13651;SDS011;6899;51.546;6.912;2023-03-12T05:53:20;6.80;;;2.83;;
13651;SDS011;6899;51.546;6.912;2023-03-12T05:55:47;9.37;;;2.57;;
13651;SDS011;6899;51.546;6.912;2023-03-12T05:58:13;4.70;;;3.00;;
13651;SDS011;6899;51.546;6.912;2023-03-12T06:00:43;8.10;;;2.50;;
13651;SDS011;6899;51.546;6.912;2023-03-12T06:03:10;4.07;;;2.67;;
13651;SDS011;6899;51.546;6.912;2023-03-12T06:05:40;3.23;;;2.23;;
13651;SDS011;6899;51.546;6.912;2023-03-12T06:08:10;4.67;;;2.70;;
13651;SDS011;6899;51.546;6.912;2023-03-12T06:10:37;7.07;;;2.90;;
13651;SDS011;6899;51.546;6.912;2023-03-12T06:13:04;6.22;;;2.38;;
13651;SDS011;6899;51.546;6.912;2023-03-12T06:15:32;5.97;;;2.60;;
13651;SDS011;6899;51.546;6.912;2023-03-12T06:17:59;6.43;;;2.80;;
13651;SDS011;6899;51.546;6.912;2023-03-12T06:20:26;8.03;;;2.70;;
13651;SDS011;6899;51.546;6.912;2023-03-12T06:22:53;6.30;;;3.23;;
13651;SDS011;6899;51.546;6.912;2023-03-12T06:25:30;5.22;;;3.22;;
13651;SDS011;6899;51.546;6.912;2023-03-12T06:27:57;4.73;;;2.57;;
13651;SDS011;6899;51.546;6.912;2023-03-12T06:30:24;5.82;;;2.83;;
13651;SDS011;6899;51.546;6.912;2023-03-12T06:32:51;5.07;;;2.67;;
13651;SDS011;6899;51.546;6.912;2023-03-12T06:35:18;5.70;;;2.80;;
13651;SDS011;6899;51.546;6.912;2023-03-12T06:37:44;6.47;;;2.85;;
13651;SDS011;6899;51.546;6.912;2023-03-12T06:40:11;6.17;;;3.10;;
13651;SDS011;6899;51.546;6.912;2023-03-12T06:42:40;3.53;;;2.77;;
13651;SDS011;6899;51.546;6.912;2023-03-12T06:45:07;5.40;;;3.13;;
13651;SDS011;6899;51.546;6.912;2023-03-12T06:47:34;9.57;;;3.27;;
13651;SDS011;6899;51.546;6.912;2023-03-12T06:50:01;5.90;;;2.85;;
13651;SDS011;6899;51.546;6.912;2023-03-12T06:52:28;5.43;;;2.97;;
13651;SDS011;6899;51.546;6.912;2023-03-12T06:54:55;6.90;;;3.27;;
13651;SDS011;6899;51.546;6.912;2023-03-12T06:57:22;5.47;;;2.60;;
13651;SDS011;6899;51.546;6.912;2023-03-12T06:59:50;5.70;;;3.00;;
13651;SDS011;6899;51.546;6.912;2023-03-12T07:02:17;10.37;;;3.83;;
13651;SDS011;6899;51.546;6.912;2023-03-12T07:04:44;8.53;;;3.50;;
13651;SDS011;6899;51.546;6.912;2023-03-12T07:07:10;8.30;;;3.63;;
13651;SDS011;6899;51.546;6.912;2023-03-12T07:09:37;5.37;;;3.03;;
13651;SDS011;6899;51.546;6.912;2023-03-12T07:12:04;8.87;;;3.03;;
13651;SDS011;6899;51.546;6.912;2023-03-12T07:14:31;4.53;;;3.40;;
13651;SDS011;6899;51.546;6.912;2023-03-12T07:17:00;4.50;;;3.03;;
13651;SDS011;6899;51.546;6.912;2023-03-12T07:19:28;4.88;;;3.03;;
13651;SDS011;6899;51.546;6.912;2023-03-12T07:21:55;5.97;;;3.10;;
13651;SDS011;6899;51.546;6.912;2023-03-12T07:24:22;5.25;;;3.00;;
13651;SDS011;6899;51.546;6.912;2023-03-12T07:26:49;6.43;;;3.40;;
13651;SDS011;6899;51.546;6.912;2023-03-12T07:29:16;10.00;;;3.50;;
13651;SDS011;6899;51.546;6.912;2023-03-12T07:31:43;6.00;;;3.27;;
13651;SDS011;6899;51.546;6.912;2023-03-12T07:34:11;6.63;;;3.70;;
13651;SDS011;6899;51.546;6.912;2023-03-12T07:36:38;7.68;;;3.55;;
13651;SDS011;6899;51.546;6.912;2023-03-12T07:39:07;11.10;;;3.77;;
13651;SDS011;6899;51.546;6.912;2023-03-12T07:41:34;4.90;;;3.60;;
13651;SDS011;6899;51.546;6.912;2023-03-12T07:44:03;6.47;;;3.37;;
13651;SDS011;6899;51.546;6.912;2023-03-12T07:46:30;10.13;;;3.60;;
13651;SDS011;6899;51.546;6.912;2023-03-12T07:48:56;7.53;;;3.43;;
13651;SDS011;6899;51.546;6.912;2023-03-12T07:51:24;7.33;;;3.73;;
13651;SDS011;6899;51.546;6.912;2023-03-12T07:53:51;9.07;;;3.77;;
13651;SDS011;6899;51.546;6.912;2023-03-12T07:56:18;7.63;;;3.40;;
13651;SDS011;6899;51.546;6.912;2023-03-12T07:58:45;8.90;;;4.03;;
13651;SDS011;6899;51.546;6.912;2023-03-12T08:01:12;7.57;;;4.47;;
13651;SDS011;6899;51.546;6.912;2023-03-12T08:03:40;7.75;;;4.00;;
13651;SDS011;6899;51.546;6.912;2023-03-12T08:06:07;6.67;;;4.03;;
13651;SDS011;6899;51.546;6.912;2023-03-12T08:08:35;6.67;;;3.83;;
13651;SDS011;6899;51.546;6.912;2023-03-12T08:11:05;11.40;;;4.05;;
13651;SDS011;6899;51.546;6.912;2023-03-12T08:13:33;10.73;;;5.05;;
13651;SDS011;6899;51.546;6.912;2023-03-12T08:16:00;6.32;;;4.22;;
13651;SDS011;6899;51.546;6.912;2023-03-12T08:18:27;5.28;;;4.10;;
13651;SDS011;6899;51.546;6.912;2023-03-12T08:20:54;11.45;;;4.88;;
13651;SDS011;6899;51.546;6.912;2023-03-12T08:23:21;7.25;;;4.30;;
13651;SDS011;6899;51.546;6.912;2023-03-12T08:25:49;7.32;;;3.92;;
13651;SDS011;6899;51.546;6.912;2023-03-12T08:28:17;4.45;;;3.50;;
13651;SDS011;6899;51.546;6.912;2023-03-12T08:30:45;7.18;;;4.03;;
13651;SDS011;6899;51.546;6.912;2023-03-12T08:33:12;7.13;;;4.10;;
13651;SDS011;6899;51.546;6.912;2023-03-12T08:35:39;9.77;;;4.72;;
13651;SDS011;6899;51.546;6.912;2023-03-12T08:38:06;5.22;;;3.80;;
13651;SDS011;6899;51.546;6.912;2023-03-12T08:40:33;7.63;;;4.18;;
13651;SDS011;6899;51.546;6.912;2023-03-12T08:43:01;10.52;;;4.88;;
13651;SDS011;6899;51.546;6.912;2023-03-12T08:45:28;7.07;;;4.00;;
13651;SDS011;6899;51.546;6.912;2023-03-12T08:47:55;6.75;;;4.63;;
13651;SDS011;6899;51.546;6.912;2023-03-12T08:50:22;7.00;;;3.80;;
13651;SDS011;6899;51.546;6.912;2023-03-12T08:52:53;6.07;;;4.13;;
13651;SDS011;6899;51.546;6.912;2023-03-12T08:55:20;8.00;;;4.40;;
13651;SDS011;6899;51.546;6.912;2023-03-12T08:57:47;10.68;;;4.40;;
13651;SDS011;6899;51.546;6.912;2023-03-12T09:00:16;7.25;;;4.57;;
13651;SDS011;6899;51.546;6.912;2023-03-12T09:02:43;10.52;;;7.53;;
13651;SDS011;6899;51.546;6.912;2023-03-12T09:05:11;6.70;;;5.07;;
13651;SDS011;6899;51.546;6.912;2023-03-12T09:07:38;8.43;;;3.97;;
13651;SDS011;6899;51.546;6.912;2023-03-12T09:10:06;6.82;;;4.38;;
13651;SDS011;6899;51.546;6.912;2023-03-12T09:12:33;10.75;;;5.28;;
13651;SDS011;6899;51.546;6.912;2023-03-12T09:15:00;7.65;;;4.70;;
13651;SDS011;6899;51.546;6.912;2023-03-12T09:17:28;9.80;;;5.00;;
13651;SDS011;6899;51.546;6.912;2023-03-12T09:19:55;8.25;;;4.90;;
13651;SDS011;6899;51.546;6.912;2023-03-12T09:22:22;8.60;;;5.93;;
13651;SDS011;6899;51.546;6.912;2023-03-12T09:24:49;7.78;;;5.40;;
13651;SDS011;6899;51.546;6.912;2023-03-12T09:27:16;15.07;;;5.85;;
13651;SDS011;6899;51.546;6.912;2023-03-12T09:29:43;7.72;;;6.35;;
13651;SDS011;6899;51.546;6.912;2023-03-12T09:32:10;6.72;;;5.75;;
13651;SDS011;6899;51.546;6.912;2023-03-12T09:34:40;7.15;;;5.80;;
13651;SDS011;6899;51.546;6.912;2023-03-12T09:37:10;8.55;;;5.40;;
13651;SDS011;6899;51.546;6.912;2023-03-12T09:39:37;8.65;;;5.85;;
13651;SDS011;6899;51.546;6.912;2023-03-12T09:42:04;7.95;;;5.72;;
13651;SDS011;6899;51.546;6.912;2023-03-12T09:44:38;10.43;;;6.25;;
13651;SDS011;6899;51.546;6.912;2023-03-12T09:47:09;9.07;;;6.07;;
13651;SDS011;6899;51.546;6.912;2023-03-12T09:49:47;9.27;;;7.22;;
13651;SDS011;6899;51.546;6.912;2023-03-12T09:52:19;8.02;;;6.38;;
13651;SDS011;6899;51.546;6.912;2023-03-12T10:00:04;9.90;;;7.40;;
13651;SDS011;6899;51.546;6.912;2023-03-12T10:02:47;13.43;;;8.93;;
13651;SDS011;6899;51.546;6.912;2023-03-12T10:05:33;14.32;;;10.88;;
13651;SDS011;6899;51.546;6.912;2023-03-12T10:08:05;11.55;;;9.02;;
13651;SDS011;6899;51.546;6.912;2023-03-12T10:10:39;10.38;;;7.78;;
13651;SDS011;6899;51.546;6.912;2023-03-12T10:13:15;12.25;;;7.97;;
13651;SDS011;6899;51.546;6.912;2023-03-12T10:15:52;13.43;;;8.25;;
13651;SDS011;6899;51.546;6.912;2023-03-12T10:18:32;11.20;;;8.35;;
13651;SDS011;6899;51.546;6.912;2023-03-12T10:21:14;11.60;;;9.07;;
13651;SDS011;6899;51.546;6.912;2023-03-12T10:23:50;12.95;;;8.95;;
13651;SDS011;6899;51.546;6.912;2023-03-12T10:26:37;12.57;;;8.77;;
13651;SDS011;6899;51.546;6.912;2023-03-12T10:29:09;12.45;;;9.63;;
13651;SDS011;6899;51.546;6.912;2023-03-12T10:31:42;13.93;;;8.45;;
13651;SDS011;6899;51.546;6.912;2023-03-12T10:34:20;11.13;;;8.95;;
13651;SDS011;6899;51.546;6.912;2023-03-12T10:36:54;11.95;;;10.40;;
13651;SDS011;6899;51.546;6.912;2023-03-12T10:39:25;14.05;;;9.75;;
13651;SDS011;6899;51.546;6.912;2023-03-12T10:41:54;11.05;;;8.90;;
13651;SDS011;6899;51.546;6.912;2023-03-12T10:44:25;12.85;;;9.85;;
13651;SDS011;6899;51.546;6.912;2023-03-12T10:47:05;11.20;;;9.15;;
13651;SDS011;6899;51.546;6.912;2023-03-12T10:49:45;15.07;;;10.98;;
13651;SDS011;6899;51.546;6.912;2023-03-12T10:52:16;25.38;;;15.15;;
13651;SDS011;6899;51.546;6.912;2023-03-12T10:54:44;15.77;;;12.75;;
13651;SDS011;6899;51.546;6.912;2023-03-12T10:57:12;17.45;;;12.23;;
13651;SDS011;6899;51.546;6.912;2023-03-12T10:59:41;15.85;;;12.20;;
13651;SDS011;6899;51.546;6.912;2023-03-12T11:04:57;18.50;;;13.65;;
13651;SDS011;6899;51.546;6.912;2023-03-12T11:07:28;23.75;;;15.02;;
13651;SDS011;6899;51.546;6.912;2023-03-12T11:12:57;21.67;;;16.70;;
13651;SDS011;6899;51.546;6.912;2023-03-12T11:15:27;23.17;;;17.67;;
13651;SDS011;6899;51.546;6.912;2023-03-12T11:20:46;28.05;;;18.40;;
13651;SDS011;6899;51.546;6.912;2023-03-12T11:23:19;27.08;;;18.90;;
13651;SDS011;6899;51.546;6.912;2023-03-12T11:25:51;24.23;;;18.10;;
13651;SDS011;6899;51.546;6.912;2023-03-12T11:28:28;29.00;;;18.92;;
13651;SDS011;6899;51.546;6.912;2023-03-12T11:31:10;31.60;;;20.40;;
13651;SDS011;6899;51.546;6.912;2023-03-12T11:33:45;28.45;;;20.20;;
13651;SDS011;6899;51.546;6.912;2023-03-12T11:36:21;31.38;;;21.80;;
13651;SDS011;6899;51.546;6.912;2023-03-12T11:38:59;34.10;;;22.33;;
13651;SDS011;6899;51.546;6.912;2023-03-12T11:41:35;30.60;;;20.80;;
13651;SDS011;6899;51.546;6.912;2023-03-12T11:44:23;44.60;;;29.13;;
13651;SDS011;6899;51.546;6.912;2023-03-12T11:47:04;37.58;;;24.00;;
13651;SDS011;6899;51.546;6.912;2023-03-12T11:49:47;33.58;;;24.02;;
13651;SDS011;6899;51.546;6.912;2023-03-12T11:52:35;35.45;;;22.50;;
13651;SDS011;6899;51.546;6.912;2023-03-12T11:55:19;34.08;;;23.73;;
13651;SDS011;6899;51.546;6.912;2023-03-12T11:58:03;28.48;;;21.08;;
13651;SDS011;6899;51.546;6.912;2023-03-12T12:00:49;29.75;;;22.73;;
13651;SDS011;6899;51.546;6.912;2023-03-12T12:03:26;29.10;;;20.83;;
13651;SDS011;6899;51.546;6.912;2023-03-12T12:06:13;26.27;;;21.02;;
13651;SDS011;6899;51.546;6.912;2023-03-12T12:08:51;28.45;;;21.00;;
13651;SDS011;6899;51.546;6.912;2023-03-12T12:11:39;28.75;;;20.58;;
13651;SDS011;6899;51.546;6.912;2023-03-12T12:14:14;25.15;;;19.48;;
13651;SDS011;6899;51.546;6.912;2023-03-12T12:17:01;25.02;;;18.92;;
13651;SDS011;6899;51.546;6.912;2023-03-12T12:19:45;26.65;;;20.48;;
13651;SDS011;6899;51.546;6.912;2023-03-12T12:22:27;24.40;;;18.88;;
13651;SDS011;6899;51.546;6.912;2023-03-12T12:25:05;23.60;;;18.38;;
13651;SDS011;6899;51.546;6.912;2023-03-12T12:27:48;25.55;;;18.52;;
13651;SDS011;6899;51.546;6.912;2023-03-12T12:30:26;21.77;;;18.02;;
13651;SDS011;6899;51.546;6.912;2023-03-12T12:33:04;24.00;;;17.52;;
13651;SDS011;6899;51.546;6.912;2023-03-12T12:35:44;23.02;;;16.52;;
13651;SDS011;6899;51.546;6.912;2023-03-12T12:38:15;18.50;;;14.90;;
13651;SDS011;6899;51.546;6.912;2023-03-12T12:40:54;20.98;;;16.08;;
13651;SDS011;6899;51.546;6.912;2023-03-12T12:43:29;19.60;;;15.35;;
13651;SDS011;6899;51.546;6.912;2023-03-12T12:46:00;32.40;;;23.27;;
13651;SDS011;6899;51.546;6.912;2023-03-12T12:48:31;22.10;;;14.95;;
13651;SDS011;6899;51.546;6.912;2023-03-12T12:51:02;20.35;;;15.15;;
13651;SDS011;6899;51.546;6.912;2023-03-12T12:53:32;22.17;;;16.20;;
13651;SDS011;6899;51.546;6.912;2023-03-12T12:56:08;25.30;;;17.60;;
13651;SDS011;6899;51.546;6.912;2023-03-12T13:01:48;21.38;;;15.63;;
13651;SDS011;6899;51.546;6.912;2023-03-12T13:04:22;22.73;;;16.35;;
13651;SDS011;6899;51.546;6.912;2023-03-12T13:06:55;21.42;;;14.98;;
13651;SDS011;6899;51.546;6.912;2023-03-12T13:09:39;21.88;;;15.68;;
13651;SDS011;6899;51.546;6.912;2023-03-12T13:12:15;22.80;;;15.50;;
13651;SDS011;6899;51.546;6.912;2023-03-12T13:14:48;26.02;;;15.93;;
13651;SDS011;6899;51.546;6.912;2023-03-12T13:17:20;23.58;;;15.18;;
13651;SDS011;6899;51.546;6.912;2023-03-12T13:19:53;20.60;;;14.57;;
13651;SDS011;6899;51.546;6.912;2023-03-12T13:25:30;23.65;;;14.85;;
13651;SDS011;6899;51.546;6.912;2023-03-12T13:28:25;20.88;;;14.52;;
13651;SDS011;6899;51.546;6.912;2023-03-12T13:31:03;22.90;;;14.77;;
13651;SDS011;6899;51.546;6.912;2023-03-12T13:40:35;24.38;;;16.00;;
13651;SDS011;6899;51.546;6.912;2023-03-12T13:43:39;27.33;;;15.25;;
13651;SDS011;6899;51.546;6.912;2023-03-12T13:46:20;26.52;;;15.18;;
13651;SDS011;6899;51.546;6.912;2023-03-12T13:49:10;26.85;;;14.93;;
13651;SDS011;6899;51.546;6.912;2023-03-12T13:51:44;25.08;;;13.63;;
13651;SDS011;6899;51.546;6.912;2023-03-12T13:54:27;23.02;;;12.70;;
13651;SDS011;6899;51.546;6.912;2023-03-12T13:56:58;34.00;;;15.52;;
13651;SDS011;6899;51.546;6.912;2023-03-12T13:59:30;28.35;;;12.98;;
13651;SDS011;6899;51.546;6.912;2023-03-12T14:02:04;27.63;;;13.30;;
13651;SDS011;6899;51.546;6.912;2023-03-12T14:04:42;27.27;;;11.20;;
13651;SDS011;6899;51.546;6.912;2023-03-12T14:07:14;32.88;;;13.18;;
13651;SDS011;6899;51.546;6.912;2023-03-12T14:10:04;27.73;;;9.82;;
13651;SDS011;6899;51.546;6.912;2023-03-12T14:12:43;29.58;;;10.40;;
13651;SDS011;6899;51.546;6.912;2023-03-12T14:15:19;23.35;;;9.70;;
13651;SDS011;6899;51.546;6.912;2023-03-12T14:17:54;24.73;;;9.52;;
13651;SDS011;6899;51.546;6.912;2023-03-12T14:20:24;22.65;;;7.88;;
13651;SDS011;6899;51.546;6.912;2023-03-12T14:22:52;22.85;;;8.52;;
13651;SDS011;6899;51.546;6.912;2023-03-12T14:25:26;24.67;;;7.60;;
13651;SDS011;6899;51.546;6.912;2023-03-12T14:27:58;28.15;;;8.80;;
13651;SDS011;6899;51.546;6.912;2023-03-12T14:30:28;19.25;;;7.68;;
13651;SDS011;6899;51.546;6.912;2023-03-12T14:33:04;17.90;;;7.53;;
13651;SDS011;6899;51.546;6.912;2023-03-12T14:35:32;25.48;;;7.95;;
13651;SDS011;6899;51.546;6.912;2023-03-12T14:38:03;22.05;;;7.85;;
13651;SDS011;6899;51.546;6.912;2023-03-12T14:40:34;23.02;;;8.43;;
13651;SDS011;6899;51.546;6.912;2023-03-12T14:43:17;29.08;;;9.20;;
13651;SDS011;6899;51.546;6.912;2023-03-12T14:45:48;20.67;;;8.25;;
13651;SDS011;6899;51.546;6.912;2023-03-12T14:48:20;20.48;;;7.25;;
13651;SDS011;6899;51.546;6.912;2023-03-12T14:50:48;24.77;;;8.60;;
13651;SDS011;6899;51.546;6.912;2023-03-12T14:53:23;24.85;;;8.05;;
13651;SDS011;6899;51.546;6.912;2023-03-12T14:55:58;24.40;;;8.25;;
13651;SDS011;6899;51.546;6.912;2023-03-12T14:58:27;27.45;;;8.15;;
13651;SDS011;6899;51.546;6.912;2023-03-12T15:00:54;24.42;;;6.85;;
13651;SDS011;6899;51.546;6.912;2023-03-12T15:03:24;25.55;;;7.28;;
13651;SDS011;6899;51.546;6.912;2023-03-12T15:05:52;29.60;;;7.35;;
13651;SDS011;6899;51.546;6.912;2023-03-12T15:08:19;26.95;;;7.60;;
13651;SDS011;6899;51.546;6.912;2023-03-12T15:10:51;22.88;;;6.30;;
13651;SDS011;6899;51.546;6.912;2023-03-12T15:13:21;23.73;;;6.72;;
13651;SDS011;6899;51.546;6.912;2023-03-12T15:15:52;20.92;;;7.03;;
13651;SDS011;6899;51.546;6.912;2023-03-12T15:18:20;20.08;;;6.30;;
13651;SDS011;6899;51.546;6.912;2023-03-12T15:20:51;28.67;;;6.97;;
13651;SDS011;6899;51.546;6.912;2023-03-12T15:23:20;26.10;;;7.28;;
13651;SDS011;6899;51.546;6.912;2023-03-12T15:25:53;20.10;;;6.72;;
13651;SDS011;6899;51.546;6.912;2023-03-12T15:28:34;25.60;;;6.28;;
13651;SDS011;6899;51.546;6.912;2023-03-12T15:31:03;21.95;;;6.43;;
13651;SDS011;6899;51.546;6.912;2023-03-12T15:33:39;24.02;;;6.78;;
13651;SDS011;6899;51.546;6.912;2023-03-12T15:36:22;23.13;;;6.05;;
13651;SDS011;6899;51.546;6.912;2023-03-12T15:38:59;23.77;;;5.82;;